sensor_id;sensor_type;location;lat;lon;timestamp;pressure;altitude;pressure_sealevel;temperature;humidity
75425;BME280;64007;50.632;13.700;2023-04-01T00:00:27;96286.00;;;7.62;100.00
75425;BME280;64007;50.632;13.700;2023-04-01T00:03:13;96277.94;;;7.63;100.00
75425;BME280;64007;50.632;13.700;2023-04-01T00:05:39;96273.06;;;7.59;100.00
75425;BME280;64007;50.632;13.700;2023-04-01T00:08:05;96276.53;;;7.59;100.00
75425;BME280;64007;50.632;13.700;2023-04-01T00:10:33;96272.38;;;7.57;100.00
75425;BME280;64007;50.632;13.700;2023-04-01T00:12:59;96272.97;;;7.50;100.00
75425;BME280;64007;50.632;13.700;2023-04-01T00:15:25;96282.84;;;7.48;100.00
75425;BME280;64007;50.632;13.700;2023-04-01T00:17:51;96278.25;;;7.50;100.00
75425;BME280;64007;50.632;13.700;2023-04-01T00:20:17;96274.69;;;7.42;100.00
75425;BME280;64007;50.632;13.700;2023-04-01T00:22:43;96276.59;;;7.49;100.00
75425;BME280;64007;50.632;13.700;2023-04-01T00:25:09;96272.13;;;7.50;100.00
75425;BME280;64007;50.632;13.700;2023-04-01T00:27:34;96276.44;;;7.51;100.00
75425;BME280;64007;50.632;13.700;2023-04-01T00:30:00;96272.00;;;7.51;100.00
75425;BME280;64007;50.632;13.700;2023-04-01T00:32:26;96271.38;;;7.58;100.00
75425;BME280;64007;50.632;13.700;2023-04-01T00:34:52;96277.97;;;7.53;100.00
75425;BME280;64007;50.632;13.700;2023-04-01T00:37:19;96272.38;;;7.57;100.00
75425;BME280;64007;50.632;13.700;2023-04-01T00:39:46;96272.38;;;7.57;100.00
75425;BME280;64007;50.632;13.700;2023-04-01T00:42:12;96275.31;;;7.53;100.00
75425;BME280;64007;50.632;13.700;2023-04-01T00:44:39;96280.28;;;7.66;100.00
75425;BME280;64007;50.632;13.700;2023-04-01T00:47:06;96280.16;;;7.58;100.00
75425;BME280;64007;50.632;13.700;2023-04-01T00:49:39;96276.59;;;7.49;100.00
75425;BME280;64007;50.632;13.700;2023-04-01T00:52:08;96274.34;;;7.54;100.00
75425;BME280;64007;50.632;13.700;2023-04-01T00:54:36;96281.59;;;7.52;100.00
75425;BME280;64007;50.632;13.700;2023-04-01T00:57:10;96273.25;;;7.47;100.00
75425;BME280;64007;50.632;13.700;2023-04-01T00:59:43;96279.28;;;7.67;100.00
75425;BME280;64007;50.632;13.700;2023-04-01T01:02:12;96278.91;;;7.62;100.00
75425;BME280;64007;50.632;13.700;2023-04-01T01:04:38;96284.28;;;7.70;100.00
75425;BME280;64007;50.632;13.700;2023-04-01T01:07:36;96276.50;;;7.69;100.00
75425;BME280;64007;50.632;13.700;2023-04-01T01:13:11;96278.34;;;7.59;100.00
75425;BME280;64007;50.632;13.700;2023-04-01T01:16:28;96281.00;;;7.59;100.00
75425;BME280;64007;50.632;13.700;2023-04-01T01:18:58;96289.13;;;7.75;100.00
75425;BME280;64007;50.632;13.700;2023-04-01T01:37:43;96268.56;;;7.69;100.00
75425;BME280;64007;50.632;13.700;2023-04-01T01:40:11;96279.16;;;7.69;100.00
75425;BME280;64007;50.632;13.700;2023-04-01T01:42:41;96267.59;;;7.70;100.00
75425;BME280;64007;50.632;13.700;2023-04-01T01:45:10;96266.22;;;7.66;100.00
75425;BME280;64007;50.632;13.700;2023-04-01T01:47:37;96272.38;;;7.57;100.00
75425;BME280;64007;50.632;13.700;2023-04-01T01:50:04;96264.84;;;7.62;100.00
75425;BME280;64007;50.632;13.700;2023-04-01T01:52:31;96270.66;;;7.65;100.00
75425;BME280;64007;50.632;13.700;2023-04-01T01:54:57;96274.00;;;7.67;100.00
75425;BME280;64007;50.632;13.700;2023-04-01T01:57:30;96271.50;;;7.66;100.00
75425;BME280;64007;50.632;13.700;2023-04-01T02:00:03;96271.50;;;7.66;100.00
75425;BME280;64007;50.632;13.700;2023-04-01T02:02:31;96277.25;;;7.61;100.00
75425;BME280;64007;50.632;13.700;2023-04-01T02:04:57;96272.06;;;7.60;100.00
75425;BME280;64007;50.632;13.700;2023-04-01T02:07:29;96263.47;;;7.58;100.00
75425;BME280;64007;50.632;13.700;2023-04-01T02:09:57;96269.34;;;7.51;100.00
75425;BME280;64007;50.632;13.700;2023-04-01T02:12:23;96266.09;;;7.58;100.00
75425;BME280;64007;50.632;13.700;2023-04-01T02:14:55;96263.47;;;7.58;100.00
75425;BME280;64007;50.632;13.700;2023-04-01T02:17:25;96265.88;;;7.51;100.00
75425;BME280;64007;50.632;13.700;2023-04-01T02:19:56;96268.75;;;7.58;100.00
75425;BME280;64007;50.632;13.700;2023-04-01T02:22:37;96268.47;;;7.61;100.00
75425;BME280;64007;50.632;13.700;2023-04-01T02:25:11;96270.13;;;7.62;100.00
75425;BME280;64007;50.632;13.700;2023-04-01T02:27:38;96268.59;;;7.59;100.00
75425;BME280;64007;50.632;13.700;2023-04-01T02:30:05;96267.50;;;7.62;100.00
75425;BME280;64007;50.632;13.700;2023-04-01T02:32:33;96268.34;;;7.80;100.00
75425;BME280;64007;50.632;13.700;2023-04-01T02:34:59;96278.94;;;7.80;100.00
75425;BME280;64007;50.632;13.700;2023-04-01T02:37:28;96270.91;;;7.72;100.00
75425;BME280;64007;50.632;13.700;2023-04-01T02:39:59;96278.31;;;7.86;100.00
75425;BME280;64007;50.632;13.700;2023-04-01T02:42:26;96280.81;;;7.88;100.00
75425;BME280;64007;50.632;13.700;2023-04-01T02:44:51;96283.38;;;7.79;100.00
75425;BME280;64007;50.632;13.700;2023-04-01T02:47:17;96283.22;;;7.81;100.00
75425;BME280;64007;50.632;13.700;2023-04-01T02:49:43;96290.03;;;7.83;100.00
75425;BME280;64007;50.632;13.700;2023-04-01T02:52:09;96285.56;;;7.84;100.00
75425;BME280;64007;50.632;13.700;2023-04-01T02:54:34;96285.19;;;7.97;100.00
75425;BME280;64007;50.632;13.700;2023-04-01T02:57:00;96284.91;;;7.82;100.00
75425;BME280;64007;50.632;13.700;2023-04-01T02:59:26;96290.25;;;7.72;100.00
75425;BME280;64007;50.632;13.700;2023-04-01T03:01:52;96290.78;;;7.76;100.00
75425;BME280;64007;50.632;13.700;2023-04-01T03:04:17;96293.13;;;7.79;100.00
75425;BME280;64007;50.632;13.700;2023-04-01T03:06:43;96302.13;;;7.68;100.00
75425;BME280;64007;50.632;13.700;2023-04-01T03:09:09;96301.44;;;7.84;100.00
75425;BME280;64007;50.632;13.700;2023-04-01T03:11:35;96300.03;;;7.90;100.00
75425;BME280;64007;50.632;13.700;2023-04-01T03:14:00;96300.63;;;7.83;100.00
75425;BME280;64007;50.632;13.700;2023-04-01T03:16:26;96305.09;;;7.83;100.00
75425;BME280;64007;50.632;13.700;2023-04-01T03:18:52;96300.38;;;7.77;100.00
75425;BME280;64007;50.632;13.700;2023-04-01T03:21:21;96300.38;;;7.77;100.00
75425;BME280;64007;50.632;13.700;2023-04-01T03:23:47;96290.56;;;7.87;100.00
75425;BME280;64007;50.632;13.700;2023-04-01T03:26:13;96289.50;;;7.98;100.00
75425;BME280;64007;50.632;13.700;2023-04-01T03:28:39;96295.13;;;8.12;100.00
75425;BME280;64007;50.632;13.700;2023-04-01T03:31:05;96294.66;;;7.99;100.00
75425;BME280;64007;50.632;13.700;2023-04-01T03:33:31;96291.09;;;7.91;100.00
75425;BME280;64007;50.632;13.700;2023-04-01T03:35:57;96293.13;;;7.79;100.00
75425;BME280;64007;50.632;13.700;2023-04-01T03:38:22;96293.06;;;7.71;100.00
75425;BME280;64007;50.632;13.700;2023-04-01T03:40:48;96297.06;;;7.75;100.00
75425;BME280;64007;50.632;13.700;2023-04-01T03:43:14;96296.38;;;7.73;100.00
75425;BME280;64007;50.632;13.700;2023-04-01T03:45:46;96310.00;;;7.78;100.00
75425;BME280;64007;50.632;13.700;2023-04-01T03:48:13;96306.81;;;7.74;100.00
75425;BME280;64007;50.632;13.700;2023-04-01T03:50:39;96311.19;;;7.66;100.00
75425;BME280;64007;50.632;13.700;2023-04-01T03:53:05;96313.81;;;7.66;100.00
75425;BME280;64007;50.632;13.700;2023-04-01T03:55:32;96316.56;;;7.74;100.00
75425;BME280;64007;50.632;13.700;2023-04-01T03:57:57;96320.50;;;7.70;100.00
75425;BME280;64007;50.632;13.700;2023-04-01T04:00:23;96313.69;;;7.85;100.00
75425;BME280;64007;50.632;13.700;2023-04-01T04:02:49;96317.72;;;7.89;100.00
75425;BME280;64007;50.632;13.700;2023-04-01T04:05:15;96324.28;;;7.85;100.00
75425;BME280;64007;50.632;13.700;2023-04-01T04:07:40;96327.91;;;7.84;100.00
75425;BME280;64007;50.632;13.700;2023-04-01T04:10:06;96327.38;;;7.80;100.00
75425;BME280;64007;50.632;13.700;2023-04-01T04:12:32;96327.00;;;7.93;100.00
75425;BME280;64007;50.632;13.700;2023-04-01T04:14:58;96327.31;;;7.90;100.00
75425;BME280;64007;50.632;13.700;2023-04-01T04:17:23;96326.25;;;7.83;100.00
75425;BME280;64007;50.632;13.700;2023-04-01T04:19:49;96336.53;;;7.86;100.00
75425;BME280;64007;50.632;13.700;2023-04-01T04:22:15;96340.75;;;7.79;100.00
75425;BME280;64007;50.632;13.700;2023-04-01T04:24:41;96339.69;;;7.72;100.00
75425;BME280;64007;50.632;13.700;2023-04-01T04:27:06;96345.50;;;7.75;100.00
75425;BME280;64007;50.632;13.700;2023-04-01T04:29:32;96339.16;;;7.68;100.00
75425;BME280;64007;50.632;13.700;2023-04-01T04:31:58;96340.53;;;7.72;100.00
75425;BME280;64007;50.632;13.700;2023-04-01T04:34:23;96340.28;;;7.66;100.00
75425;BME280;64007;50.632;13.700;2023-04-01T04:36:49;96343.22;;;7.63;100.00
75425;BME280;64007;50.632;13.700;2023-04-01T04:39:15;96344.47;;;7.59;100.00
75425;BME280;64007;50.632;13.700;2023-04-01T04:41:41;96344.75;;;7.55;100.00
75425;BME280;64007;50.632;13.700;2023-04-01T04:44:07;96341.25;;;7.65;100.00
75425;BME280;64007;50.632;13.700;2023-04-01T04:46:32;96349.38;;;7.53;100.00
75425;BME280;64007;50.632;13.700;2023-04-01T04:48:58;96351.16;;;7.63;100.00
75425;BME280;64007;50.632;13.700;2023-04-01T04:51:24;96355.19;;;7.57;100.00
75425;BME280;64007;50.632;13.700;2023-04-01T04:53:51;96357.31;;;7.53;100.00
75425;BME280;64007;50.632;13.700;2023-04-01T04:56:21;96358.13;;;7.64;100.00
75425;BME280;64007;50.632;13.700;2023-04-01T04:58:48;96360.06;;;7.62;100.00
75425;BME280;64007;50.632;13.700;2023-04-01T05:01:15;96353.22;;;7.69;100.00
75425;BME280;64007;50.632;13.700;2023-04-01T05:03:42;96351.53;;;7.68;100.00
75425;BME280;64007;50.632;13.700;2023-04-01T05:06:09;96355.47;;;7.64;100.00
75425;BME280;64007;50.632;13.700;2023-04-01T05:08:36;96358.50;;;7.69;100.00
75425;BME280;64007;50.632;13.700;2023-04-01T05:11:06;96361.25;;;7.77;100.00
75425;BME280;64007;50.632;13.700;2023-04-01T05:13:35;96357.69;;;7.86;100.00
75425;BME280;64007;50.632;13.700;2023-04-01T05:16:01;96370.25;;;7.84;100.00
75425;BME280;64007;50.632;13.700;2023-04-01T05:18:27;96368.28;;;7.86;100.00
75425;BME280;64007;50.632;13.700;2023-04-01T05:20:54;96368.00;;;7.89;100.00
75425;BME280;64007;50.632;13.700;2023-04-01T05:23:21;96368.97;;;7.88;100.00
75425;BME280;64007;50.632;13.700;2023-04-01T05:25:48;96373.22;;;7.99;100.00
75425;BME280;64007;50.632;13.700;2023-04-01T05:28:15;96370.72;;;7.97;100.00
75425;BME280;64007;50.632;13.700;2023-04-01T05:30:42;96372.69;;;7.95;100.00
75425;BME280;64007;50.632;13.700;2023-04-01T05:33:09;96375.59;;;8.02;100.00
75425;BME280;64007;50.632;13.700;2023-04-01T05:35:35;96370.72;;;7.97;100.00
75425;BME280;64007;50.632;13.700;2023-04-01T05:38:02;96378.41;;;8.18;100.00
75425;BME280;64007;50.632;13.700;2023-04-01T05:40:28;96381.09;;;8.36;100.00
75425;BME280;64007;50.632;13.700;2023-04-01T05:42:54;96375.59;;;8.47;100.00
75425;BME280;64007;50.632;13.700;2023-04-01T05:45:20;96375.16;;;8.52;100.00
75425;BME280;64007;50.632;13.700;2023-04-01T05:47:46;96379.97;;;8.38;100.00
75425;BME280;64007;50.632;13.700;2023-04-01T05:50:11;96387.19;;;8.46;100.00
75425;BME280;64007;50.632;13.700;2023-04-01T05:52:38;96389.47;;;8.41;100.00
75425;BME280;64007;50.632;13.700;2023-04-01T05:55:04;96389.00;;;8.45;100.00
75425;BME280;64007;50.632;13.700;2023-04-01T05:57:30;96388.75;;;8.39;100.00
75425;BME280;64007;50.632;13.700;2023-04-01T05:59:56;96392.47;;;8.46;100.00
75425;BME280;64007;50.632;13.700;2023-04-01T06:02:22;96384.44;;;8.38;100.00
75425;BME280;64007;50.632;13.700;2023-04-01T06:04:47;96393.06;;;8.40;100.00
75425;BME280;64007;50.632;13.700;2023-04-01T06:07:15;96394.44;;;8.44;100.00
75425;BME280;64007;50.632;13.700;2023-04-01T06:09:42;96394.75;;;8.41;100.00
75425;BME280;64007;50.632;13.700;2023-04-01T06:12:27;96395.13;;;8.46;100.00
75425;BME280;64007;50.632;13.700;2023-04-01T06:20:57;96397.78;;;8.46;100.00
75425;BME280;64007;50.632;13.700;2023-04-01T06:23:47;96408.53;;;8.62;100.00
75425;BME280;64007;50.632;13.700;2023-04-01T06:26:46;96404.88;;;8.63;100.00
75425;BME280;64007;50.632;13.700;2023-04-01T06:29:27;96405.34;;;8.76;100.00
75425;BME280;64007;50.632;13.700;2023-04-01T06:56:18;96403.13;;;9.07;100.00
75425;BME280;64007;50.632;13.700;2023-04-01T06:58:48;96405.28;;;9.12;100.00
75425;BME280;64007;50.632;13.700;2023-04-01T07:01:38;96410.97;;;9.17;100.00
75425;BME280;64007;50.632;13.700;2023-04-01T07:04:15;96411.97;;;9.16;100.00
75425;BME280;64007;50.632;13.700;2023-04-01T07:09:31;96410.44;;;9.31;100.00
75425;BME280;64007;50.632;13.700;2023-04-01T07:12:02;96413.84;;;9.50;100.00
75425;BME280;64007;50.632;13.700;2023-04-01T07:14:39;96420.94;;;9.67;100.00
75425;BME280;64007;50.632;13.700;2023-04-01T07:17:15;96422.53;;;9.86;100.00
75425;BME280;64007;50.632;13.700;2023-04-01T07:20:05;96419.53;;;9.89;100.00
75425;BME280;64007;50.632;13.700;2023-04-01T07:22:45;96415.09;;;9.97;100.00
75425;BME280;64007;50.632;13.700;2023-04-01T07:27:41;96420.19;;;9.83;100.00
75425;BME280;64007;50.632;13.700;2023-04-01T07:30:17;96412.56;;;9.88;100.00
75425;BME280;64007;50.632;13.700;2023-04-01T07:35:43;96415.75;;;9.99;100.00
75425;BME280;64007;50.632;13.700;2023-04-01T07:38:30;96412.66;;;10.04;100.00
75425;BME280;64007;50.632;13.700;2023-04-01T07:46:55;96424.81;;;10.15;100.00
75425;BME280;64007;50.632;13.700;2023-04-01T07:54:37;96431.94;;;10.48;100.00
75425;BME280;64007;50.632;13.700;2023-04-01T07:57:27;96425.63;;;10.57;100.00
75425;BME280;64007;50.632;13.700;2023-04-01T08:00:27;96435.63;;;10.80;100.00
75425;BME280;64007;50.632;13.700;2023-04-01T08:06:01;96435.66;;;11.12;91.45
75425;BME280;64007;50.632;13.700;2023-04-01T08:14:11;96452.28;;;10.90;95.88
75425;BME280;64007;50.632;13.700;2023-04-01T08:17:00;96451.13;;;10.92;93.48
75425;BME280;64007;50.632;13.700;2023-04-01T08:19:51;96449.97;;;11.11;83.31
75425;BME280;64007;50.632;13.700;2023-04-01T08:22:41;96455.97;;;11.21;85.71
75425;BME280;64007;50.632;13.700;2023-04-01T08:25:16;96458.97;;;11.26;85.59
75425;BME280;64007;50.632;13.700;2023-04-01T08:27:56;96467.91;;;11.09;74.58
75425;BME280;64007;50.632;13.700;2023-04-01T08:30:47;96458.28;;;11.08;76.08
75425;BME280;64007;50.632;13.700;2023-04-01T08:35:54;96465.78;;;11.21;75.85
75425;BME280;64007;50.632;13.700;2023-04-01T08:38:34;96459.94;;;11.01;72.59
75425;BME280;64007;50.632;13.700;2023-04-01T08:44:19;96456.78;;;11.06;75.21
75425;BME280;64007;50.632;13.700;2023-04-01T08:50:01;96446.63;;;10.93;73.03
75425;BME280;64007;50.632;13.700;2023-04-01T08:55:44;96447.13;;;10.96;76.32
75425;BME280;64007;50.632;13.700;2023-04-01T09:01:16;96440.81;;;11.06;77.95
75425;BME280;64007;50.632;13.700;2023-04-01T09:04:35;96446.81;;;11.16;78.28
75425;BME280;64007;50.632;13.700;2023-04-01T09:08:07;96439.34;;;11.36;75.36
75425;BME280;64007;50.632;13.700;2023-04-01T09:20:44;96454.13;;;11.63;73.04
75425;BME280;64007;50.632;13.700;2023-04-01T09:23:54;96443.09;;;11.90;73.85
75425;BME280;64007;50.632;13.700;2023-04-01T09:44:04;96455.72;;;12.51;73.44
75425;BME280;64007;50.632;13.700;2023-04-01T10:19:38;96469.56;;;11.59;100.00
75425;BME280;64007;50.632;13.700;2023-04-01T10:43:54;96464.50;;;12.60;83.68
75425;BME280;64007;50.632;13.700;2023-04-01T10:46:52;96469.09;;;12.43;85.42
75425;BME280;64007;50.632;13.700;2023-04-01T11:27:38;96431.03;;;14.46;58.84
75425;BME280;64007;50.632;13.700;2023-04-01T11:32:49;96438.72;;;14.40;57.92
75425;BME280;64007;50.632;13.700;2023-04-01T11:38:39;96440.97;;;14.22;56.38
75425;BME280;64007;50.632;13.700;2023-04-01T11:44:16;96444.47;;;13.78;58.11
75425;BME280;64007;50.632;13.700;2023-04-01T11:49:41;96440.78;;;13.42;57.53
75425;BME280;64007;50.632;13.700;2023-04-01T12:08:57;96461.78;;;12.68;65.48
75425;BME280;64007;50.632;13.700;2023-04-01T12:14:30;96468.03;;;12.52;73.52
75425;BME280;64007;50.632;13.700;2023-04-01T12:20:12;96473.66;;;12.58;70.52
75425;BME280;64007;50.632;13.700;2023-04-01T12:25:43;96463.84;;;12.89;61.57
75425;BME280;64007;50.632;13.700;2023-04-01T12:28:25;96469.59;;;13.69;67.22
75425;BME280;64007;50.632;13.700;2023-04-01T12:31:13;96461.03;;;13.89;60.46
75425;BME280;64007;50.632;13.700;2023-04-01T12:33:52;96463.25;;;14.00;61.15
75425;BME280;64007;50.632;13.700;2023-04-01T12:36:35;96464.38;;;13.91;62.47
75425;BME280;64007;50.632;13.700;2023-04-01T12:41:57;96468.22;;;13.73;64.89
75425;BME280;64007;50.632;13.700;2023-04-01T12:50:28;96478.66;;;13.60;64.51
75425;BME280;64007;50.632;13.700;2023-04-01T12:55:59;96472.81;;;13.19;66.99
75425;BME280;64007;50.632;13.700;2023-04-01T13:04:45;96482.41;;;12.74;69.62
75425;BME280;64007;50.632;13.700;2023-04-01T13:09:56;96491.00;;;12.14;79.71
75425;BME280;64007;50.632;13.700;2023-04-01T13:12:50;96500.09;;;12.28;83.96
75425;BME280;64007;50.632;13.700;2023-04-01T13:21:27;96506.41;;;13.05;78.95
75425;BME280;64007;50.632;13.700;2023-04-01T13:29:25;96509.72;;;12.45;76.97
75425;BME280;64007;50.632;13.700;2023-04-01T13:32:23;96522.47;;;12.11;76.33
75425;BME280;64007;50.632;13.700;2023-04-01T13:48:52;96517.19;;;11.78;89.75
75425;BME280;64007;50.632;13.700;2023-04-01T13:51:45;96514.50;;;11.70;92.04
75425;BME280;64007;50.632;13.700;2023-04-01T13:54:24;96525.81;;;11.97;88.11
75425;BME280;64007;50.632;13.700;2023-04-01T14:08:00;96534.50;;;11.66;100.00
75425;BME280;64007;50.632;13.700;2023-04-01T14:10:40;96529.16;;;11.50;100.00
75425;BME280;64007;50.632;13.700;2023-04-01T14:19:37;96547.84;;;10.83;100.00
75425;BME280;64007;50.632;13.700;2023-04-01T14:21:50;96549.28;;;10.78;100.00
75425;BME280;64007;50.632;13.700;2023-04-01T14:24:29;96534.56;;;10.49;100.00
75425;BME280;64007;50.632;13.700;2023-04-01T14:27:04;96537.50;;;10.38;100.00
75425;BME280;64007;50.632;13.700;2023-04-01T14:33:21;96535.22;;;10.17;100.00
75425;BME280;64007;50.632;13.700;2023-04-01T14:38:54;96540.56;;;9.99;100.00
75425;BME280;64007;50.632;13.700;2023-04-01T14:49:42;96546.28;;;10.04;100.00
75425;BME280;64007;50.632;13.700;2023-04-01T14:52:27;96545.94;;;10.08;100.00
75425;BME280;64007;50.632;13.700;2023-04-01T14:54:54;96545.63;;;10.11;100.00
75425;BME280;64007;50.632;13.700;2023-04-01T14:59:58;96553.75;;;10.09;100.00
75425;BME280;64007;50.632;13.700;2023-04-01T15:02:33;96548.97;;;10.13;100.00
75425;BME280;64007;50.632;13.700;2023-04-01T15:05:16;96548.50;;;10.17;100.00
75425;BME280;64007;50.632;13.700;2023-04-01T15:08:01;96553.03;;;10.25;100.00
75425;BME280;64007;50.632;13.700;2023-04-01T15:10:42;96548.75;;;10.32;100.00
75425;BME280;64007;50.632;13.700;2023-04-01T15:24:47;96560.44;;;10.13;100.00
75425;BME280;64007;50.632;13.700;2023-04-01T15:38:11;96566.81;;;9.59;100.00
75425;BME280;64007;50.632;13.700;2023-04-01T15:40:49;96575.09;;;9.56;100.00
75425;BME280;64007;50.632;13.700;2023-04-01T15:57:11;96587.22;;;9.76;100.00
75425;BME280;64007;50.632;13.700;2023-04-01T16:02:23;96581.94;;;10.02;100.00
75425;BME280;64007;50.632;13.700;2023-04-01T16:07:55;96594.19;;;10.21;100.00
75425;BME280;64007;50.632;13.700;2023-04-01T16:23:57;96596.44;;;10.67;100.00
75425;BME280;64007;50.632;13.700;2023-04-01T16:27:03;96600.13;;;10.75;100.00
75425;BME280;64007;50.632;13.700;2023-04-01T16:29:40;96604.44;;;10.76;100.00
75425;BME280;64007;50.632;13.700;2023-04-01T16:37:52;96610.72;;;10.66;100.00
75425;BME280;64007;50.632;13.700;2023-04-01T16:40:47;96621.00;;;10.61;100.00
75425;BME280;64007;50.632;13.700;2023-04-01T16:43:28;96611.38;;;10.60;100.00
75425;BME280;64007;50.632;13.700;2023-04-01T16:46:33;96615.00;;;10.59;100.00
75425;BME280;64007;50.632;13.700;2023-04-01T16:49:24;96625.66;;;10.59;100.00
75425;BME280;64007;50.632;13.700;2023-04-01T17:02:38;96637.47;;;10.39;100.00
75425;BME280;64007;50.632;13.700;2023-04-01T17:05:11;96636.78;;;10.37;100.00
75425;BME280;64007;50.632;13.700;2023-04-01T17:16:00;96662.50;;;10.11;100.00
75425;BME280;64007;50.632;13.700;2023-04-01T17:18:42;96664.78;;;10.05;100.00
75425;BME280;64007;50.632;13.700;2023-04-01T17:27:41;96667.97;;;9.91;100.00
75425;BME280;64007;50.632;13.700;2023-04-01T17:49:25;96688.19;;;9.39;100.00
75425;BME280;64007;50.632;13.700;2023-04-01T17:55:31;96685.50;;;9.21;100.00
75425;BME280;64007;50.632;13.700;2023-04-01T17:58:19;96694.47;;;9.10;100.00
75425;BME280;64007;50.632;13.700;2023-04-01T18:03:43;96705.13;;;9.01;100.00
75425;BME280;64007;50.632;13.700;2023-04-01T18:06:37;96710.72;;;8.98;100.00
75425;BME280;64007;50.632;13.700;2023-04-01T18:09:34;96712.44;;;8.89;100.00
75425;BME280;64007;50.632;13.700;2023-04-01T18:12:10;96718.88;;;8.87;100.00
75425;BME280;64007;50.632;13.700;2023-04-01T18:15:31;96718.19;;;8.85;100.00
75425;BME280;64007;50.632;13.700;2023-04-01T18:23:47;96731.44;;;8.75;100.00
75425;BME280;64007;50.632;13.700;2023-04-01T18:26:23;96732.28;;;8.75;100.00
75425;BME280;64007;50.632;13.700;2023-04-01T18:31:37;96742.91;;;8.66;100.00
75425;BME280;64007;50.632;13.700;2023-04-01T18:36:59;96745.16;;;8.61;100.00
75425;BME280;64007;50.632;13.700;2023-04-01T18:39:39;96749.91;;;8.57;100.00
75425;BME280;64007;50.632;13.700;2023-04-01T18:44:52;96750.47;;;8.51;100.00
75425;BME280;64007;50.632;13.700;2023-04-01T18:50:27;96755.66;;;8.43;100.00
75425;BME280;64007;50.632;13.700;2023-04-01T18:53:39;96758.56;;;8.40;100.00
75425;BME280;64007;50.632;13.700;2023-04-01T18:56:06;96763.84;;;8.40;100.00
75425;BME280;64007;50.632;13.700;2023-04-01T18:58:35;96764.16;;;8.37;100.00
75425;BME280;64007;50.632;13.700;2023-04-01T19:04:39;96769.97;;;8.31;100.00
75425;BME280;64007;50.632;13.700;2023-04-01T19:09:49;96771.41;;;8.35;100.00
75425;BME280;64007;50.632;13.700;2023-04-01T19:12:34;96769.97;;;8.31;100.00
75425;BME280;64007;50.632;13.700;2023-04-01T19:20:29;96777.94;;;8.21;100.00
75425;BME280;64007;50.632;13.700;2023-04-01T19:25:55;96785.72;;;8.23;100.00
75425;BME280;64007;50.632;13.700;2023-04-01T19:36:50;96798.97;;;8.23;100.00
75425;BME280;64007;50.632;13.700;2023-04-01T19:39:39;96799.25;;;8.20;100.00
75425;BME280;64007;50.632;13.700;2023-04-01T19:47:39;96809.00;;;8.19;100.00
75425;BME280;64007;50.632;13.700;2023-04-01T19:53:11;96811.94;;;8.16;100.00
75425;BME280;64007;50.632;13.700;2023-04-01T19:55:50;96815.69;;;8.13;100.00
75425;BME280;64007;50.632;13.700;2023-04-01T19:58:28;96824.63;;;8.12;100.00
75425;BME280;64007;50.632;13.700;2023-04-01T20:00:58;96823.78;;;8.12;100.00
75425;BME280;64007;50.632;13.700;2023-04-01T20:06:34;96833.81;;;8.08;100.00
75425;BME280;64007;50.632;13.700;2023-04-01T20:14:32;96844.41;;;8.08;100.00
75425;BME280;64007;50.632;13.700;2023-04-01T20:25:16;96840.75;;;8.00;100.00
75425;BME280;64007;50.632;13.700;2023-04-01T20:47:42;96866.50;;;7.88;100.00
75425;BME280;64007;50.632;13.700;2023-04-01T21:09:52;96871.91;;;7.86;100.00
75425;BME280;64007;50.632;13.700;2023-04-01T21:29:23;96888.91;;;7.84;100.00
75425;BME280;64007;50.632;13.700;2023-04-01T21:34:54;96895.75;;;7.86;100.00
75425;BME280;64007;50.632;13.700;2023-04-01T21:37:48;96900.91;;;7.88;100.00
75425;BME280;64007;50.632;13.700;2023-04-01T21:52:05;96912.88;;;7.92;100.00
75425;BME280;64007;50.632;13.700;2023-04-01T22:03:13;96921.81;;;7.91;100.00
75425;BME280;64007;50.632;13.700;2023-04-01T22:17:00;96928.22;;;7.98;100.00
75425;BME280;64007;50.632;13.700;2023-04-01T22:19:40;96922.69;;;8.01;100.00
75425;BME280;64007;50.632;13.700;2023-04-01T22:22:21;96925.06;;;8.04;100.00
75425;BME280;64007;50.632;13.700;2023-04-01T22:30:23;96927.16;;;8.10;100.00
75425;BME280;64007;50.632;13.700;2023-04-01T22:35:49;96933.88;;;8.14;100.00
75425;BME280;64007;50.632;13.700;2023-04-01T22:43:58;96943.47;;;8.15;100.00
75425;BME280;64007;50.632;13.700;2023-04-01T22:46:39;96949.47;;;8.17;100.00
75425;BME280;64007;50.632;13.700;2023-04-01T22:51:56;96947.25;;;8.23;100.00
75425;BME280;64007;50.632;13.700;2023-04-01T22:54:48;96954.50;;;8.21;100.00
75425;BME280;64007;50.632;13.700;2023-04-01T22:57:40;96948.50;;;8.18;100.00
75425;BME280;64007;50.632;13.700;2023-04-01T23:00:14;96948.66;;;8.17;100.00
75425;BME280;64007;50.632;13.700;2023-04-01T23:05:30;96950.31;;;8.18;100.00
75425;BME280;64007;50.632;13.700;2023-04-01T23:10:52;96960.06;;;8.17;100.00
75425;BME280;64007;50.632;13.700;2023-04-01T23:13:27;96960.06;;;8.17;100.00
75425;BME280;64007;50.632;13.700;2023-04-01T23:15:55;96963.41;;;8.20;100.00
75425;BME280;64007;50.632;13.700;2023-04-01T23:18:28;96967.03;;;8.18;100.00
75425;BME280;64007;50.632;13.700;2023-04-01T23:21:19;96974.28;;;8.16;100.00
75425;BME280;64007;50.632;13.700;2023-04-01T23:29:17;96976.22;;;8.14;100.00
75425;BME280;64007;50.632;13.700;2023-04-01T23:31:45;96979.84;;;8.13;100.00
75425;BME280;64007;50.632;13.700;2023-04-01T23:39:53;96991.56;;;8.11;100.00
75425;BME280;64007;50.632;13.700;2023-04-01T23:42:26;96996.00;;;8.10;100.00
75425;BME280;64007;50.632;13.700;2023-04-01T23:44:58;96999.63;;;8.09;100.00
75425;BME280;64007;50.632;13.700;2023-04-01T23:47:30;97001.56;;;8.07;100.00
75425;BME280;64007;50.632;13.700;2023-04-01T23:50:01;97005.19;;;8.06;100.00
75425;BME280;64007;50.632;13.700;2023-04-01T23:53:03;97003.50;;;8.05;100.00